sensor_id;sensor_type;location;lat;lon;timestamp;pressure;altitude;pressure_sealevel;temperature;humidity
65131;BME280;51709;54.912;8.316;2023-07-22T00:04:38;100844.28;;;15.76;69.07
65131;BME280;51709;54.912;8.316;2023-07-22T00:09:59;100844.56;;;15.81;69.18
65131;BME280;51709;54.912;8.316;2023-07-22T00:15:20;100841.88;;;15.87;69.00
65131;BME280;51709;54.912;8.316;2023-07-22T00:20:42;100835.84;;;15.92;68.75
65131;BME280;51709;54.912;8.316;2023-07-22T00:26:03;100837.91;;;15.90;68.51
65131;BME280;51709;54.912;8.316;2023-07-22T00:31:24;100838.56;;;15.92;68.45
65131;BME280;51709;54.912;8.316;2023-07-22T00:36:44;100841.69;;;15.89;68.31
65131;BME280;51709;54.912;8.316;2023-07-22T00:42:06;100841.41;;;15.84;67.91
65131;BME280;51709;54.912;8.316;2023-07-22T00:47:28;100844.34;;;15.82;67.98
65131;BME280;51709;54.912;8.316;2023-07-22T00:52:49;100843.69;;;15.80;67.51
65131;BME280;51709;54.912;8.316;2023-07-22T00:58:10;100838.59;;;15.77;67.29
65131;BME280;51709;54.912;8.316;2023-07-22T01:03:31;100840.09;;;15.80;67.42
65131;BME280;51709;54.912;8.316;2023-07-22T01:08:52;100845.56;;;15.80;67.10
65131;BME280;51709;54.912;8.316;2023-07-22T01:14:12;100839.72;;;15.83;67.03
65131;BME280;51709;54.912;8.316;2023-07-22T01:19:33;100840.56;;;15.83;66.99
65131;BME280;51709;54.912;8.316;2023-07-22T01:24:55;100851.56;;;15.68;66.92
65131;BME280;51709;54.912;8.316;2023-07-22T01:30:16;100845.81;;;15.49;66.80
65131;BME280;51709;54.912;8.316;2023-07-22T01:35:37;100841.97;;;15.43;66.39
65131;BME280;51709;54.912;8.316;2023-07-22T01:40:57;100840.25;;;15.42;66.34
65131;BME280;51709;54.912;8.316;2023-07-22T01:46:19;100838.56;;;15.41;66.40
65131;BME280;51709;54.912;8.316;2023-07-22T01:51:40;100835.06;;;15.47;66.38
65131;BME280;51709;54.912;8.316;2023-07-22T01:57:01;100840.81;;;15.52;66.27
65131;BME280;51709;54.912;8.316;2023-07-22T02:02:22;100829.94;;;15.59;66.34
65131;BME280;51709;54.912;8.316;2023-07-22T02:07:43;100839.66;;;15.61;66.38
65131;BME280;51709;54.912;8.316;2023-07-22T02:13:03;100827.09;;;15.67;66.20
65131;BME280;51709;54.912;8.316;2023-07-22T02:18:25;100830.50;;;15.69;65.85
65131;BME280;51709;54.912;8.316;2023-07-22T02:23:45;100825.88;;;15.69;65.20
65131;BME280;51709;54.912;8.316;2023-07-22T02:29:06;100830.94;;;15.73;65.49
65131;BME280;51709;54.912;8.316;2023-07-22T02:34:27;100849.00;;;15.67;65.29
65131;BME280;51709;54.912;8.316;2023-07-22T02:39:48;100842.31;;;15.69;65.40
65131;BME280;51709;54.912;8.316;2023-07-22T02:45:09;100847.38;;;15.73;65.33
65131;BME280;51709;54.912;8.316;2023-07-22T02:58:28;100855.28;;;15.46;64.66
65131;BME280;51709;54.912;8.316;2023-07-22T03:03:48;100857.41;;;15.36;64.65
65131;BME280;51709;54.912;8.316;2023-07-22T03:09:09;100858.44;;;15.35;65.76
65131;BME280;51709;54.912;8.316;2023-07-22T03:14:31;100855.31;;;15.38;66.51
65131;BME280;51709;54.912;8.316;2023-07-22T03:19:56;100846.44;;;15.36;67.10
65131;BME280;51709;54.912;8.316;2023-07-22T03:25:20;100850.72;;;15.39;66.10
65131;BME280;51709;54.912;8.316;2023-07-22T03:30:40;100849.69;;;15.54;65.93
65131;BME280;51709;54.912;8.316;2023-07-22T03:36:02;100849.59;;;15.62;65.87
65131;BME280;51709;54.912;8.316;2023-07-22T03:41:23;100869.25;;;15.51;65.28
65131;BME280;51709;54.912;8.316;2023-07-22T03:46:43;100855.00;;;15.41;65.43
65131;BME280;51709;54.912;8.316;2023-07-22T03:52:05;100865.53;;;15.15;64.71
65131;BME280;51709;54.912;8.316;2023-07-22T03:57:26;100852.28;;;15.04;65.02
65131;BME280;51709;54.912;8.316;2023-07-22T04:02:47;100857.69;;;15.12;65.33
65131;BME280;51709;54.912;8.316;2023-07-22T04:08:08;100857.69;;;15.12;65.79
65131;BME280;51709;54.912;8.316;2023-07-22T04:13:28;100855.22;;;15.17;65.70
65131;BME280;51709;54.912;8.316;2023-07-22T04:18:49;100859.31;;;15.21;66.19
65131;BME280;51709;54.912;8.316;2023-07-22T04:24:10;100864.13;;;15.34;66.20
65131;BME280;51709;54.912;8.316;2023-07-22T04:29:31;100846.66;;;15.49;66.92
65131;BME280;51709;54.912;8.316;2023-07-22T04:34:52;100858.22;;;14.56;69.65
65131;BME280;51709;54.912;8.316;2023-07-22T04:40:13;100866.00;;;14.22;71.05
65131;BME280;51709;54.912;8.316;2023-07-22T04:45:39;100852.22;;;14.38;70.87
65131;BME280;51709;54.912;8.316;2023-07-22T04:51:03;100863.94;;;14.69;70.61
65131;BME280;51709;54.912;8.316;2023-07-22T04:56:23;100868.81;;;14.96;70.46
65131;BME280;51709;54.912;8.316;2023-07-22T05:01:44;100861.78;;;15.45;69.26
65131;BME280;51709;54.912;8.316;2023-07-22T05:07:05;100871.84;;;15.74;69.06
65131;BME280;51709;54.912;8.316;2023-07-22T05:12:25;100874.09;;;15.85;68.86
65131;BME280;51709;54.912;8.316;2023-07-22T05:17:47;100862.31;;;15.85;68.42
65131;BME280;51709;54.912;8.316;2023-07-22T05:23:07;100870.47;;;15.99;68.35
65131;BME280;51709;54.912;8.316;2023-07-22T05:28:27;100866.66;;;16.15;68.00
65131;BME280;51709;54.912;8.316;2023-07-22T05:33:48;100868.63;;;16.21;67.68
65131;BME280;51709;54.912;8.316;2023-07-22T05:39:08;100873.41;;;16.33;67.50
65131;BME280;51709;54.912;8.316;2023-07-22T05:44:29;100879.38;;;16.58;67.14
65131;BME280;51709;54.912;8.316;2023-07-22T05:49:50;100873.38;;;16.69;66.16
65131;BME280;51709;54.912;8.316;2023-07-22T05:55:10;100897.00;;;16.70;64.93
65131;BME280;51709;54.912;8.316;2023-07-22T06:00:33;100876.41;;;16.81;64.67
65131;BME280;51709;54.912;8.316;2023-07-22T06:05:53;100892.09;;;16.87;64.42
65131;BME280;51709;54.912;8.316;2023-07-22T06:11:14;100890.00;;;16.89;63.64
65131;BME280;51709;54.912;8.316;2023-07-22T06:16:35;100883.78;;;17.01;63.11
65131;BME280;51709;54.912;8.316;2023-07-22T06:21:55;100890.63;;;17.12;62.71
65131;BME280;51709;54.912;8.316;2023-07-22T06:27:16;100910.63;;;17.33;62.34
65131;BME280;51709;54.912;8.316;2023-07-22T06:32:37;100887.88;;;17.39;62.01
65131;BME280;51709;54.912;8.316;2023-07-22T06:37:58;100902.63;;;17.38;61.41
65131;BME280;51709;54.912;8.316;2023-07-22T06:43:18;100909.16;;;17.58;60.96
65131;BME280;51709;54.912;8.316;2023-07-22T06:48:39;100902.00;;;17.70;61.23
65131;BME280;51709;54.912;8.316;2023-07-22T06:53:59;100905.91;;;17.83;60.61
65131;BME280;51709;54.912;8.316;2023-07-22T06:59:20;100899.25;;;18.11;60.77
65131;BME280;51709;54.912;8.316;2023-07-22T07:04:40;100921.19;;;17.98;61.69
65131;BME280;51709;54.912;8.316;2023-07-22T07:10:01;100920.53;;;17.55;62.56
65131;BME280;51709;54.912;8.316;2023-07-22T07:15:22;100913.22;;;17.41;62.61
65131;BME280;51709;54.912;8.316;2023-07-22T07:20:44;100908.34;;;17.64;62.35
65131;BME280;51709;54.912;8.316;2023-07-22T07:26:04;100912.66;;;17.87;61.45
65131;BME280;51709;54.912;8.316;2023-07-22T07:31:25;100931.47;;;18.37;60.10
65131;BME280;51709;54.912;8.316;2023-07-22T07:36:45;100924.41;;;18.68;59.25
65131;BME280;51709;54.912;8.316;2023-07-22T07:42:06;100945.00;;;18.25;61.22
65131;BME280;51709;54.912;8.316;2023-07-22T07:47:26;100944.78;;;17.24;63.46
65131;BME280;51709;54.912;8.316;2023-07-22T07:52:46;100947.13;;;16.57;65.12
65131;BME280;51709;54.912;8.316;2023-07-22T07:58:07;100951.63;;;16.65;66.98
65131;BME280;51709;54.912;8.316;2023-07-22T08:03:28;100945.88;;;17.02;67.11
65131;BME280;51709;54.912;8.316;2023-07-22T08:08:49;100954.88;;;16.54;67.51
65131;BME280;51709;54.912;8.316;2023-07-22T08:14:10;100957.66;;;16.25;66.71
65131;BME280;51709;54.912;8.316;2023-07-22T08:19:31;100972.00;;;15.91;67.83
65131;BME280;51709;54.912;8.316;2023-07-22T08:24:51;100968.97;;;15.86;68.61
65131;BME280;51709;54.912;8.316;2023-07-22T08:30:14;100965.41;;;16.36;68.06
65131;BME280;51709;54.912;8.316;2023-07-22T08:35:36;100963.25;;;17.09;66.84
65131;BME280;51709;54.912;8.316;2023-07-22T08:40:57;100967.22;;;17.83;65.26
65131;BME280;51709;54.912;8.316;2023-07-22T08:46:19;100974.69;;;18.36;63.98
65131;BME280;51709;54.912;8.316;2023-07-22T08:51:41;100958.34;;;18.89;62.57
65131;BME280;51709;54.912;8.316;2023-07-22T08:57:01;100967.28;;;19.43;61.24
65131;BME280;51709;54.912;8.316;2023-07-22T09:02:24;100965.56;;;19.22;60.85
65131;BME280;51709;54.912;8.316;2023-07-22T09:07:47;100968.72;;;18.93;60.14
65131;BME280;51709;54.912;8.316;2023-07-22T09:13:09;100977.78;;;18.74;60.84
65131;BME280;51709;54.912;8.316;2023-07-22T09:18:32;100969.84;;;19.44;59.45
65131;BME280;51709;54.912;8.316;2023-07-22T09:23:54;100968.06;;;19.89;56.85
65131;BME280;51709;54.912;8.316;2023-07-22T09:29:14;100965.66;;;20.19;55.83
65131;BME280;51709;54.912;8.316;2023-07-22T09:34:35;100984.31;;;20.74;54.81
65131;BME280;51709;54.912;8.316;2023-07-22T09:39:55;100977.53;;;20.70;53.80
65131;BME280;51709;54.912;8.316;2023-07-22T09:45:17;100977.63;;;20.88;53.61
65131;BME280;51709;54.912;8.316;2023-07-22T09:50:38;100968.72;;;20.79;53.40
65131;BME280;51709;54.912;8.316;2023-07-22T09:56:05;100984.38;;;20.54;53.65
65131;BME280;51709;54.912;8.316;2023-07-22T10:01:26;100983.13;;;20.57;53.68
65131;BME280;51709;54.912;8.316;2023-07-22T10:06:46;100980.31;;;21.01;52.69
65131;BME280;51709;54.912;8.316;2023-07-22T10:12:07;100978.50;;;21.20;52.52
65131;BME280;51709;54.912;8.316;2023-07-22T10:17:28;100984.72;;;21.09;52.05
65131;BME280;51709;54.912;8.316;2023-07-22T10:22:50;100966.47;;;20.70;52.47
65131;BME280;51709;54.912;8.316;2023-07-22T10:28:12;100975.50;;;20.52;53.14
65131;BME280;51709;54.912;8.316;2023-07-22T10:33:32;100989.50;;;20.51;52.96
65131;BME280;51709;54.912;8.316;2023-07-22T10:38:56;100984.81;;;20.58;52.88
65131;BME280;51709;54.912;8.316;2023-07-22T10:44:19;100987.09;;;20.67;52.67
65131;BME280;51709;54.912;8.316;2023-07-22T10:49:45;100989.84;;;20.67;52.79
65131;BME280;51709;54.912;8.316;2023-07-22T10:55:14;100982.72;;;20.53;52.98
65131;BME280;51709;54.912;8.316;2023-07-22T11:00:35;100997.00;;;20.37;53.97
65131;BME280;51709;54.912;8.316;2023-07-22T11:05:55;100980.34;;;20.95;53.45
65131;BME280;51709;54.912;8.316;2023-07-22T11:11:19;100990.66;;;22.11;51.95
65131;BME280;51709;54.912;8.316;2023-07-22T11:16:42;100985.16;;;23.18;49.94
65131;BME280;51709;54.912;8.316;2023-07-22T11:22:04;100980.31;;;23.77;47.75
65131;BME280;51709;54.912;8.316;2023-07-22T11:27:25;100988.03;;;23.99;47.19
65131;BME280;51709;54.912;8.316;2023-07-22T11:32:46;100990.56;;;23.77;47.04
65131;BME280;51709;54.912;8.316;2023-07-22T11:38:12;100986.09;;;23.88;46.64
65131;BME280;51709;54.912;8.316;2023-07-22T11:43:32;100981.53;;;24.05;46.10
65131;BME280;51709;54.912;8.316;2023-07-22T11:48:55;100979.91;;;24.32;45.46
65131;BME280;51709;54.912;8.316;2023-07-22T11:54:16;100984.81;;;24.93;44.27
65131;BME280;51709;54.912;8.316;2023-07-22T11:59:39;100985.50;;;24.60;45.00
65131;BME280;51709;54.912;8.316;2023-07-22T12:10:23;100974.63;;;25.76;43.59
65131;BME280;51709;54.912;8.316;2023-07-22T12:15:59;100975.56;;;27.11;42.02
65131;BME280;51709;54.912;8.316;2023-07-22T12:21:19;100972.38;;;26.11;42.54
65131;BME280;51709;54.912;8.316;2023-07-22T12:26:40;100974.88;;;25.58;43.75
65131;BME280;51709;54.912;8.316;2023-07-22T12:32:01;100972.19;;;25.46;44.36
65131;BME280;51709;54.912;8.316;2023-07-22T12:37:22;100977.41;;;24.58;45.69
65131;BME280;51709;54.912;8.316;2023-07-22T12:42:42;100976.47;;;23.67;47.13
65131;BME280;51709;54.912;8.316;2023-07-22T12:48:03;100978.00;;;23.51;47.98
65131;BME280;51709;54.912;8.316;2023-07-22T12:53:26;100967.50;;;23.76;47.41
65131;BME280;51709;54.912;8.316;2023-07-22T12:58:48;100963.88;;;24.11;46.70
65131;BME280;51709;54.912;8.316;2023-07-22T13:04:10;100962.22;;;23.63;47.57
65131;BME280;51709;54.912;8.316;2023-07-22T13:09:31;100959.06;;;23.71;47.46
65131;BME280;51709;54.912;8.316;2023-07-22T13:14:51;100963.81;;;23.18;48.62
65131;BME280;51709;54.912;8.316;2023-07-22T13:20:12;100963.53;;;23.08;48.64
65131;BME280;51709;54.912;8.316;2023-07-22T13:25:33;100961.03;;;22.77;48.13
65131;BME280;51709;54.912;8.316;2023-07-22T13:30:54;100957.22;;;22.60;47.50
65131;BME280;51709;54.912;8.316;2023-07-22T13:36:15;100953.72;;;22.17;48.50
65131;BME280;51709;54.912;8.316;2023-07-22T13:41:35;100950.75;;;21.75;48.80
65131;BME280;51709;54.912;8.316;2023-07-22T13:46:56;100944.25;;;21.45;49.60
65131;BME280;51709;54.912;8.316;2023-07-22T13:52:16;100945.31;;;21.20;50.12
65131;BME280;51709;54.912;8.316;2023-07-22T13:57:37;100945.09;;;21.46;49.55
65131;BME280;51709;54.912;8.316;2023-07-22T14:02:58;100950.19;;;21.92;49.09
65131;BME280;51709;54.912;8.316;2023-07-22T14:08:19;100939.88;;;21.80;49.18
65131;BME280;51709;54.912;8.316;2023-07-22T14:13:40;100945.31;;;21.44;50.12
65131;BME280;51709;54.912;8.316;2023-07-22T14:19:01;100960.91;;;20.76;52.17
65131;BME280;51709;54.912;8.316;2023-07-22T14:24:21;100953.28;;;19.51;56.19
65131;BME280;51709;54.912;8.316;2023-07-22T14:29:42;100954.06;;;18.73;57.84
65131;BME280;51709;54.912;8.316;2023-07-22T14:35:03;100958.59;;;18.40;58.99
65131;BME280;51709;54.912;8.316;2023-07-22T14:40:25;100948.94;;;18.10;59.63
65131;BME280;51709;54.912;8.316;2023-07-22T14:45:45;100949.56;;;17.43;62.08
65131;BME280;51709;54.912;8.316;2023-07-22T14:51:06;100932.00;;;17.10;63.03
65131;BME280;51709;54.912;8.316;2023-07-22T14:56:27;100943.81;;;16.62;65.34
65131;BME280;51709;54.912;8.316;2023-07-22T15:01:48;100940.91;;;16.70;64.96
65131;BME280;51709;54.912;8.316;2023-07-22T15:07:08;100938.47;;;16.60;65.09
65131;BME280;51709;54.912;8.316;2023-07-22T15:12:29;100930.19;;;16.54;65.16
65131;BME280;51709;54.912;8.316;2023-07-22T15:17:52;100921.75;;;16.77;64.68
65131;BME280;51709;54.912;8.316;2023-07-22T15:23:13;100931.47;;;17.00;64.22
65131;BME280;51709;54.912;8.316;2023-07-22T15:28:33;100923.91;;;17.02;64.68
65131;BME280;51709;54.912;8.316;2023-07-22T15:33:54;100920.50;;;17.00;64.95
65131;BME280;51709;54.912;8.316;2023-07-22T15:39:15;100924.38;;;16.85;65.94
65131;BME280;51709;54.912;8.316;2023-07-22T15:44:36;100923.59;;;16.91;65.89
65131;BME280;51709;54.912;8.316;2023-07-22T15:49:57;100919.59;;;16.93;65.76
65131;BME280;51709;54.912;8.316;2023-07-22T15:55:18;100911.00;;;16.96;65.88
65131;BME280;51709;54.912;8.316;2023-07-22T16:00:39;100913.78;;;17.03;65.88
65131;BME280;51709;54.912;8.316;2023-07-22T16:06:01;100901.44;;;16.92;66.16
65131;BME280;51709;54.912;8.316;2023-07-22T16:11:22;100907.59;;;16.94;65.95
65131;BME280;51709;54.912;8.316;2023-07-22T16:16:43;100917.91;;;16.92;66.02
65131;BME280;51709;54.912;8.316;2023-07-22T16:22:04;100923.44;;;16.99;65.79
65131;BME280;51709;54.912;8.316;2023-07-22T16:27:25;100917.25;;;16.90;66.34
65131;BME280;51709;54.912;8.316;2023-07-22T16:32:46;100914.91;;;16.87;66.17
65131;BME280;51709;54.912;8.316;2023-07-22T16:38:07;100908.13;;;16.83;66.26
65131;BME280;51709;54.912;8.316;2023-07-22T16:43:27;100890.75;;;16.76;66.23
65131;BME280;51709;54.912;8.316;2023-07-22T16:48:48;100898.19;;;16.61;66.50
65131;BME280;51709;54.912;8.316;2023-07-22T16:54:09;100888.31;;;16.45;66.98
65131;BME280;51709;54.912;8.316;2023-07-22T16:59:30;100883.84;;;16.44;66.67
65131;BME280;51709;54.912;8.316;2023-07-22T17:04:51;100890.50;;;16.35;67.19
65131;BME280;51709;54.912;8.316;2023-07-22T17:10:11;100880.13;;;16.31;67.14
65131;BME280;51709;54.912;8.316;2023-07-22T17:15:32;100869.47;;;16.21;67.63
65131;BME280;51709;54.912;8.316;2023-07-22T17:20:52;100871.34;;;16.21;67.60
65131;BME280;51709;54.912;8.316;2023-07-22T17:26:14;100860.59;;;16.19;67.86
65131;BME280;51709;54.912;8.316;2023-07-22T17:31:35;100847.06;;;16.18;68.09
65131;BME280;51709;54.912;8.316;2023-07-22T17:36:56;100854.28;;;16.19;68.05
65131;BME280;51709;54.912;8.316;2023-07-22T17:42:18;100852.66;;;16.24;67.96
65131;BME280;51709;54.912;8.316;2023-07-22T17:47:40;100849.97;;;16.31;68.09
65131;BME280;51709;54.912;8.316;2023-07-22T17:53:01;100850.38;;;16.28;68.30
65131;BME280;51709;54.912;8.316;2023-07-22T17:58:22;100852.16;;;16.21;68.93
65131;BME280;51709;54.912;8.316;2023-07-22T18:03:43;100847.97;;;16.04;69.16
65131;BME280;51709;54.912;8.316;2023-07-22T18:09:04;100852.63;;;15.89;69.46
65131;BME280;51709;54.912;8.316;2023-07-22T18:14:24;100842.31;;;15.69;69.39
65131;BME280;51709;54.912;8.316;2023-07-22T18:19:45;100840.34;;;15.49;69.91
65131;BME280;51709;54.912;8.316;2023-07-22T18:25:06;100838.91;;;15.38;69.93
65131;BME280;51709;54.912;8.316;2023-07-22T18:30:27;100837.09;;;15.31;70.24
65131;BME280;51709;54.912;8.316;2023-07-22T18:35:49;100833.63;;;15.22;70.48
65131;BME280;51709;54.912;8.316;2023-07-22T18:41:15;100829.84;;;15.23;70.69
65131;BME280;51709;54.912;8.316;2023-07-22T18:46:37;100828.16;;;15.22;70.77
65131;BME280;51709;54.912;8.316;2023-07-22T18:51:57;100823.72;;;15.36;70.46
65131;BME280;51709;54.912;8.316;2023-07-22T18:57:17;100816.94;;;15.46;70.38
65131;BME280;51709;54.912;8.316;2023-07-22T19:02:38;100818.03;;;15.37;70.90
65131;BME280;51709;54.912;8.316;2023-07-22T19:07:59;100809.13;;;15.43;70.82
65131;BME280;51709;54.912;8.316;2023-07-22T19:13:19;100798.03;;;15.51;70.91
65131;BME280;51709;54.912;8.316;2023-07-22T19:18:40;100820.13;;;15.50;71.21
65131;BME280;51709;54.912;8.316;2023-07-22T19:24:00;100805.88;;;15.54;71.23
65131;BME280;51709;54.912;8.316;2023-07-22T19:29:21;100809.72;;;15.60;71.28
65131;BME280;51709;54.912;8.316;2023-07-22T19:34:43;100798.00;;;15.66;71.44
65131;BME280;51709;54.912;8.316;2023-07-22T19:40:05;100802.84;;;15.64;71.85
65131;BME280;51709;54.912;8.316;2023-07-22T19:45:25;100797.84;;;15.53;72.23
65131;BME280;51709;54.912;8.316;2023-07-22T19:50:46;100791.91;;;15.49;72.19
65131;BME280;51709;54.912;8.316;2023-07-22T19:56:07;100798.69;;;15.53;72.43
65131;BME280;51709;54.912;8.316;2023-07-22T20:01:29;100787.75;;;15.53;72.43
65131;BME280;51709;54.912;8.316;2023-07-22T20:06:50;100790.22;;;15.48;72.85
65131;BME280;51709;54.912;8.316;2023-07-22T20:12:11;100779.44;;;15.32;73.72
65131;BME280;51709;54.912;8.316;2023-07-22T20:17:32;100784.44;;;15.29;73.67
65131;BME280;51709;54.912;8.316;2023-07-22T20:22:53;100777.38;;;15.34;73.63
65131;BME280;51709;54.912;8.316;2023-07-22T20:28:13;100776.97;;;15.37;73.53
65131;BME280;51709;54.912;8.316;2023-07-22T20:33:34;100773.56;;;15.35;73.38
65131;BME280;51709;54.912;8.316;2023-07-22T20:38:57;100762.72;;;15.42;73.36
65131;BME280;51709;54.912;8.316;2023-07-22T20:44:18;100755.84;;;15.46;73.40
65131;BME280;51709;54.912;8.316;2023-07-22T20:49:41;100756.44;;;15.41;73.19
65131;BME280;51709;54.912;8.316;2023-07-22T20:55:02;100761.41;;;15.38;73.23
65131;BME280;51709;54.912;8.316;2023-07-22T21:00:23;100757.81;;;15.37;73.75
65131;BME280;51709;54.912;8.316;2023-07-22T21:05:52;100738.66;;;15.37;73.57
65131;BME280;51709;54.912;8.316;2023-07-22T21:11:13;100743.41;;;15.43;73.64
65131;BME280;51709;54.912;8.316;2023-07-22T21:16:34;100737.53;;;15.46;73.58
65131;BME280;51709;54.912;8.316;2023-07-22T21:21:55;100736.09;;;15.50;73.68
65131;BME280;51709;54.912;8.316;2023-07-22T21:27:16;100736.56;;;15.54;73.84
65131;BME280;51709;54.912;8.316;2023-07-22T21:32:37;100725.78;;;15.52;74.23
65131;BME280;51709;54.912;8.316;2023-07-22T21:37:57;100719.00;;;15.48;74.63
65131;BME280;51709;54.912;8.316;2023-07-22T21:43:18;100722.50;;;15.42;75.00
65131;BME280;51709;54.912;8.316;2023-07-22T21:48:39;100718.91;;;15.42;75.12
65131;BME280;51709;54.912;8.316;2023-07-22T21:54:00;100719.69;;;15.36;75.33
65131;BME280;51709;54.912;8.316;2023-07-22T21:59:20;100709.75;;;15.35;75.46
65131;BME280;51709;54.912;8.316;2023-07-22T22:04:41;100717.13;;;15.34;75.25
65131;BME280;51709;54.912;8.316;2023-07-22T22:10:03;100708.25;;;15.32;75.79
65131;BME280;51709;54.912;8.316;2023-07-22T22:15:24;100704.47;;;15.33;75.68
65131;BME280;51709;54.912;8.316;2023-07-22T22:20:44;100694.38;;;15.34;75.91
65131;BME280;51709;54.912;8.316;2023-07-22T22:26:05;100692.09;;;15.37;75.77
65131;BME280;51709;54.912;8.316;2023-07-22T22:31:25;100680.41;;;15.43;75.68
65131;BME280;51709;54.912;8.316;2023-07-22T22:36:46;100670.75;;;15.47;75.51
65131;BME280;51709;54.912;8.316;2023-07-22T22:42:07;100662.78;;;15.52;75.59
65131;BME280;51709;54.912;8.316;2023-07-22T22:47:28;100663.66;;;15.53;76.41
65131;BME280;51709;54.912;8.316;2023-07-22T22:52:49;100663.91;;;15.58;76.74
65131;BME280;51709;54.912;8.316;2023-07-22T22:58:09;100653.81;;;15.58;77.21
65131;BME280;51709;54.912;8.316;2023-07-22T23:03:30;100649.78;;;15.76;77.30
65131;BME280;51709;54.912;8.316;2023-07-22T23:08:51;100642.41;;;16.04;76.69
65131;BME280;51709;54.912;8.316;2023-07-22T23:14:11;100643.97;;;16.13;76.33
65131;BME280;51709;54.912;8.316;2023-07-22T23:19:32;100633.53;;;16.02;76.95
65131;BME280;51709;54.912;8.316;2023-07-22T23:24:53;100628.47;;;15.99;77.22
65131;BME280;51709;54.912;8.316;2023-07-22T23:30:17;100620.91;;;16.01;78.07
65131;BME280;51709;54.912;8.316;2023-07-22T23:35:38;100610.75;;;16.01;78.28
65131;BME280;51709;54.912;8.316;2023-07-22T23:40:59;100618.19;;;16.07;78.47
65131;BME280;51709;54.912;8.316;2023-07-22T23:46:20;100609.84;;;16.15;78.18
65131;BME280;51709;54.912;8.316;2023-07-22T23:51:41;100599.69;;;16.16;78.28
65131;BME280;51709;54.912;8.316;2023-07-22T23:57:01;100603.09;;;16.18;78.54
